Terminal Aerodrome Forecast
Issued by NWS

Home | Current Version | Previous Version | Text Only | Print | Product List | Glossary On
Versions: 1 2 3 4 5 6 7 8 9 10 11 12 13 14 15 16
000
FTUS45 KTFX 032343
TAFCTB
TAF
KCTB 032343Z 0400/0424 VRB06KT P6SM VCSH SCT025 BKN040
      TEMPO 0400/0403 -RA BKN025
     FM040300 21006KT P6SM -RA SCT020 OVC045
     FM041700 04008KT 4SM -RA BR SCT010 BKN025=

USA.gov is the U.S. government's official web portal to all federal, state and local government web resources and services.